createdAt,value
2023-05-14T00:01:36.374Z,8.83
2023-05-14T00:04:41.394Z,8.33
2023-05-14T00:07:45.567Z,10.43
2023-05-14T00:11:00.770Z,10.90
2023-05-14T00:14:08.149Z,9.30
2023-05-14T00:17:15.162Z,8.93
2023-05-14T00:20:28.496Z,15.18
2023-05-14T00:24:01.829Z,11.60
2023-05-14T00:31:23.897Z,12.52
2023-05-14T00:35:01.447Z,10.50
2023-05-14T00:38:27.971Z,12.93
2023-05-14T00:42:27.251Z,12.80
2023-05-14T00:45:51.348Z,11.48
2023-05-14T00:49:22.722Z,10.52
2023-05-14T00:52:33.162Z,10.98
2023-05-14T00:55:58.494Z,11.03
2023-05-14T00:59:19.839Z,10.95
2023-05-14T01:02:32.971Z,13.00
2023-05-14T01:06:14.724Z,8.73
2023-05-14T01:09:54.536Z,9.73
2023-05-14T01:13:17.060Z,9.02
2023-05-14T01:16:20.960Z,9.88
2023-05-14T01:19:52.142Z,8.50
2023-05-14T01:22:56.429Z,8.90
2023-05-14T01:26:02.503Z,8.82
2023-05-14T01:29:20.522Z,9.80
2023-05-14T01:32:26.174Z,8.88
2023-05-14T01:35:31.482Z,8.73
2023-05-14T01:38:36.913Z,10.82
2023-05-14T01:41:40.773Z,12.90
2023-05-14T01:44:44.590Z,9.90
2023-05-14T01:47:50.044Z,7.03
2023-05-14T01:50:54.120Z,9.90
2023-05-14T01:53:58.423Z,11.13
2023-05-14T01:57:02.517Z,9.20
2023-05-14T02:00:07.125Z,8.53
2023-05-14T02:03:17.138Z,7.93
2023-05-14T02:06:23.000Z,9.52
2023-05-14T02:09:29.660Z,9.53
2023-05-14T02:12:33.455Z,8.95
2023-05-14T02:15:37.361Z,9.70
2023-05-14T02:18:44.321Z,9.55
2023-05-14T02:21:49.525Z,13.90
2023-05-14T02:24:52.790Z,10.83
2023-05-14T02:27:55.964Z,12.63
2023-05-14T02:31:01.537Z,9.52
2023-05-14T02:34:06.853Z,8.53
2023-05-14T02:37:13.077Z,10.15
2023-05-14T02:40:16.579Z,10.75
2023-05-14T02:43:20.665Z,10.93
2023-05-14T02:46:24.716Z,9.70
2023-05-14T02:49:28.565Z,11.93
2023-05-14T02:52:31.917Z,9.18
2023-05-14T02:55:36.855Z,9.82
2023-05-14T02:58:43.083Z,20.17
2023-05-14T03:01:46.648Z,11.70
2023-05-14T03:04:50.995Z,10.52
2023-05-14T03:07:54.558Z,12.75
2023-05-14T03:10:58.070Z,11.43
2023-05-14T03:14:01.956Z,10.35
2023-05-14T03:17:05.439Z,11.95
2023-05-14T03:20:09.235Z,10.48
2023-05-14T03:23:12.617Z,15.63
2023-05-14T03:26:15.906Z,11.68
2023-05-14T03:29:19.183Z,10.73
2023-05-14T03:32:22.513Z,13.15
2023-05-14T03:35:25.933Z,9.77
2023-05-14T03:38:29.104Z,12.35
2023-05-14T03:41:32.498Z,10.13
2023-05-14T03:44:36.077Z,11.10
2023-05-14T03:47:40.228Z,9.75
2023-05-14T03:50:43.871Z,9.75
2023-05-14T03:53:47.857Z,12.13
2023-05-14T03:56:51.054Z,9.23
2023-05-14T03:59:54.621Z,8.85
2023-05-14T04:02:57.915Z,14.60
2023-05-14T04:06:01.896Z,9.68
2023-05-14T04:09:04.808Z,12.57
2023-05-14T04:12:08.281Z,9.98
2023-05-14T04:15:11.743Z,10.63
2023-05-14T04:18:15.059Z,9.47
2023-05-14T04:21:18.498Z,12.13
2023-05-14T04:24:21.463Z,13.93
2023-05-14T04:27:24.645Z,10.63
2023-05-14T04:30:27.545Z,8.33
2023-05-14T04:33:30.878Z,11.23
2023-05-14T04:36:33.899Z,8.75
2023-05-14T04:39:37.045Z,9.40
2023-05-14T04:42:39.839Z,6.77
2023-05-14T04:45:43.416Z,8.57
2023-05-14T04:48:46.299Z,7.50
2023-05-14T04:51:49.652Z,9.05
2023-05-14T04:54:52.778Z,6.30
2023-05-14T04:57:55.747Z,7.33
2023-05-14T05:00:59.820Z,5.95
2023-05-14T05:04:03.221Z,6.50
2023-05-14T05:07:06.720Z,5.78
2023-05-14T05:10:10.288Z,5.93
2023-05-14T05:13:13.637Z,6.55
2023-05-14T05:16:17.542Z,6.72
2023-05-14T05:19:29.092Z,4.88
2023-05-14T05:22:36.710Z,4.57
2023-05-14T05:25:42.961Z,5.70
2023-05-14T05:28:46.314Z,5.25
2023-05-14T05:31:50.560Z,4.88
2023-05-14T05:34:53.919Z,4.55
2023-05-14T05:38:00.480Z,7.73
2023-05-14T05:41:05.362Z,9.43
2023-05-14T05:44:09.586Z,5.88
2023-05-14T05:47:13.459Z,4.38
2023-05-14T05:50:18.821Z,4.45
2023-05-14T05:53:23.618Z,6.27
2023-05-14T05:56:27.390Z,6.17
2023-05-14T05:59:31.084Z,7.53
2023-05-14T06:02:34.765Z,4.78
2023-05-14T06:05:38.541Z,4.53
2023-05-14T06:08:42.758Z,4.43
2023-05-14T06:11:46.665Z,4.60
2023-05-14T06:14:55.667Z,4.40
2023-05-14T06:17:59.181Z,7.10
2023-05-14T06:21:02.537Z,8.07
2023-05-14T06:24:08.996Z,7.70
2023-05-14T06:27:12.264Z,6.77
2023-05-14T06:30:15.861Z,6.30
2023-05-14T06:33:20.569Z,5.82
2023-05-14T06:36:23.534Z,5.45
2023-05-14T06:39:27.113Z,5.73
2023-05-14T06:42:30.389Z,5.53
2023-05-14T06:45:34.602Z,7.05
2023-05-14T06:48:37.947Z,6.30
2023-05-14T06:51:42.076Z,5.20
2023-05-14T06:54:45.153Z,7.93
2023-05-14T06:57:48.119Z,4.43
2023-05-14T07:00:51.299Z,6.25
2023-05-14T07:03:54.524Z,8.27
2023-05-14T07:06:58.070Z,5.63
2023-05-14T07:10:01.676Z,5.93
2023-05-14T07:13:04.729Z,6.00
2023-05-14T07:16:12.115Z,4.38
2023-05-14T07:19:15.223Z,7.10
2023-05-14T07:22:18.568Z,5.85
2023-05-14T07:25:21.336Z,5.07
2023-05-14T07:28:24.414Z,4.37
2023-05-14T07:31:27.406Z,5.65
2023-05-14T07:34:30.550Z,4.68
2023-05-14T07:37:33.932Z,5.85
2023-05-14T07:40:37.007Z,4.33
2023-05-14T07:43:40.703Z,4.90
2023-05-14T07:46:44.175Z,4.13
2023-05-14T07:49:47.456Z,6.75
2023-05-14T07:52:50.940Z,5.15
2023-05-14T07:55:54.940Z,4.13
2023-05-14T07:58:58.322Z,4.73
2023-05-14T08:02:01.948Z,5.07
2023-05-14T08:05:05.596Z,6.32
2023-05-14T08:08:09.383Z,4.47
2023-05-14T08:11:12.918Z,6.13
2023-05-14T08:14:16.257Z,4.87
2023-05-14T08:17:19.949Z,4.18
2023-05-14T08:20:24.600Z,7.43
2023-05-14T08:23:28.661Z,4.97
2023-05-14T08:26:32.132Z,4.33
2023-05-14T08:29:35.624Z,5.23
2023-05-14T08:32:39.673Z,4.15
2023-05-14T08:35:42.903Z,7.10
2023-05-14T08:38:46.175Z,5.68
2023-05-14T08:41:49.666Z,5.20
2023-05-14T08:45:03.716Z,6.67
2023-05-14T08:48:11.323Z,7.95
2023-05-14T08:51:14.851Z,5.25
2023-05-14T08:54:18.636Z,3.63
2023-05-14T08:57:26.821Z,5.53
2023-05-14T09:00:30.208Z,7.07
2023-05-14T09:03:34.014Z,6.30
2023-05-14T09:06:38.008Z,6.15
2023-05-14T09:09:41.606Z,4.38
2023-05-14T09:12:44.764Z,4.70
2023-05-14T09:15:51.499Z,6.17
2023-05-14T09:18:55.046Z,5.72
2023-05-14T09:22:01.567Z,6.72
2023-05-14T09:25:11.386Z,4.93
2023-05-14T09:28:17.539Z,5.10
2023-05-14T09:31:20.791Z,9.90
2023-05-14T09:34:24.621Z,4.55
2023-05-14T09:37:28.751Z,4.57
2023-05-14T09:40:31.619Z,4.78
2023-05-14T09:43:34.387Z,5.10
2023-05-14T09:46:37.422Z,4.97
2023-05-14T09:49:40.543Z,5.90
2023-05-14T09:52:43.511Z,4.53
2023-05-14T09:55:47.252Z,4.63
2023-05-14T09:58:50.168Z,6.63
2023-05-14T10:01:54.431Z,4.27
2023-05-14T10:05:02.798Z,4.22
2023-05-14T10:08:13.790Z,4.70
2023-05-14T10:11:25.355Z,7.50
2023-05-14T10:14:36.519Z,6.50
2023-05-14T10:17:43.595Z,4.20
2023-05-14T10:21:06.568Z,3.88
2023-05-14T10:24:10.600Z,3.63
2023-05-14T10:27:15.619Z,4.15
2023-05-14T10:30:25.981Z,3.00
2023-05-14T10:33:29.644Z,3.47
2023-05-14T10:36:36.039Z,3.50
2023-05-14T10:39:59.535Z,5.00
2023-05-14T10:43:04.498Z,4.68
2023-05-14T10:46:10.348Z,4.57
2023-05-14T10:49:25.792Z,6.83
2023-05-14T10:52:46.658Z,5.35
2023-05-14T10:55:58.157Z,3.95
2023-05-14T10:59:29.554Z,4.18
2023-05-14T11:02:57.091Z,3.97
2023-05-14T11:06:04.272Z,7.97
2023-05-14T11:09:08.519Z,4.70
2023-05-14T11:12:12.410Z,3.13
2023-05-14T11:15:20.562Z,4.53
2023-05-14T11:18:31.918Z,2.77
2023-05-14T11:21:39.780Z,4.13
2023-05-14T11:24:43.731Z,3.25
2023-05-14T11:27:48.419Z,6.15
2023-05-14T11:31:01.033Z,6.03
2023-05-14T11:34:06.141Z,5.00
2023-05-14T11:37:12.256Z,5.60
2023-05-14T11:40:17.181Z,2.95
2023-05-14T11:43:20.768Z,3.35
2023-05-14T11:46:26.775Z,5.38
2023-05-14T11:49:30.403Z,6.17
2023-05-14T11:52:39.619Z,13.43
2023-05-14T11:55:42.641Z,4.22
2023-05-14T11:58:49.605Z,4.38
2023-05-14T12:01:52.908Z,2.78
2023-05-14T12:04:56.087Z,3.00
2023-05-14T12:07:59.108Z,3.47
2023-05-14T12:11:03.945Z,2.80
2023-05-14T12:14:24.405Z,3.40
2023-05-14T12:17:28.033Z,3.33
2023-05-14T12:20:31.673Z,6.00
2023-05-14T12:23:34.968Z,4.67
2023-05-14T12:26:39.124Z,2.88
2023-05-14T12:29:43.633Z,2.33
2023-05-14T12:32:47.194Z,4.82
2023-05-14T12:35:50.861Z,4.13
2023-05-14T12:39:02.044Z,3.40
2023-05-14T12:42:05.290Z,5.47
2023-05-14T12:45:09.034Z,4.70
2023-05-14T12:48:13.377Z,4.07
2023-05-14T12:51:16.803Z,6.93
2023-05-14T12:54:20.152Z,7.73
2023-05-14T12:57:23.580Z,7.22
2023-05-14T13:00:27.264Z,6.88
2023-05-14T13:03:30.843Z,3.65
2023-05-14T13:06:34.276Z,4.37
2023-05-14T13:09:40.281Z,4.33
2023-05-14T13:12:43.947Z,3.10
2023-05-14T13:15:47.556Z,2.85
2023-05-14T13:18:51.401Z,6.90
2023-05-14T13:21:55.144Z,5.03
2023-05-14T13:24:59.129Z,3.80
2023-05-14T13:28:02.314Z,3.58
2023-05-14T13:31:10.595Z,5.80
2023-05-14T13:34:13.780Z,4.57
2023-05-14T13:37:17.165Z,5.77
2023-05-14T13:40:20.436Z,8.10
2023-05-14T13:43:24.464Z,4.40
2023-05-14T13:46:28.170Z,8.27
2023-05-14T13:49:31.954Z,6.35
2023-05-14T13:52:36.021Z,6.57
2023-05-14T13:55:39.605Z,3.93
2023-05-14T13:58:42.918Z,4.95
2023-05-14T14:01:48.139Z,3.05
2023-05-14T14:04:51.809Z,4.93
2023-05-14T14:08:00.957Z,2.53
2023-05-14T14:11:13.315Z,4.33
2023-05-14T14:14:17.704Z,5.32
2023-05-14T14:17:21.184Z,3.60
2023-05-14T14:20:24.685Z,5.25
2023-05-14T14:23:27.856Z,2.77
2023-05-14T14:26:31.112Z,3.53
2023-05-14T14:29:34.720Z,2.47
2023-05-14T14:32:37.926Z,3.17
2023-05-14T14:35:41.151Z,3.70
2023-05-14T14:38:44.456Z,4.70
2023-05-14T14:41:48.034Z,4.43
2023-05-14T14:44:51.152Z,6.60
2023-05-14T14:48:27.873Z,4.80
2023-05-14T14:51:31.525Z,5.80
2023-05-14T14:54:34.497Z,6.50
2023-05-14T14:57:37.893Z,5.87
2023-05-14T15:00:41.263Z,4.75
2023-05-14T15:03:45.758Z,4.82
2023-05-14T15:06:48.949Z,5.35
2023-05-14T15:09:52.119Z,7.83
2023-05-14T15:12:59.672Z,5.90
2023-05-14T15:16:02.676Z,6.97
2023-05-14T15:19:05.990Z,5.68
2023-05-14T15:22:09.438Z,8.98
2023-05-14T15:25:12.513Z,5.63
2023-05-14T15:28:15.814Z,6.90
2023-05-14T15:31:19.202Z,10.85
2023-05-14T15:34:22.371Z,11.95
2023-05-14T15:37:27.078Z,9.27
2023-05-14T15:40:30.649Z,12.87
2023-05-14T15:43:37.503Z,10.33
2023-05-14T15:46:41.254Z,10.45
2023-05-14T15:49:45.090Z,13.68
2023-05-14T15:52:49.184Z,15.77
2023-05-14T15:55:52.571Z,13.73
2023-05-14T15:58:56.282Z,13.90
2023-05-14T16:02:00.054Z,11.13
2023-05-14T16:05:04.154Z,9.73
2023-05-14T16:08:07.443Z,10.75
2023-05-14T16:11:10.829Z,10.03
2023-05-14T16:14:14.303Z,19.97
2023-05-14T16:17:17.675Z,18.05
2023-05-14T16:20:20.863Z,21.10
2023-05-14T16:23:24.133Z,18.95
2023-05-14T16:26:27.410Z,13.57
2023-05-14T16:29:31.516Z,14.87
2023-05-14T16:32:34.810Z,15.95
2023-05-14T16:35:38.070Z,15.32
2023-05-14T16:38:52.322Z,12.50
2023-05-14T16:42:00.385Z,13.17
2023-05-14T16:45:04.380Z,16.10
2023-05-14T16:48:10.746Z,24.67
2023-05-14T16:51:14.120Z,31.40
2023-05-14T16:54:17.489Z,33.88
2023-05-14T16:57:20.765Z,22.77
2023-05-14T17:00:24.450Z,22.07
2023-05-14T17:03:28.251Z,22.98
2023-05-14T17:06:32.141Z,19.17
2023-05-14T17:09:35.956Z,19.70
2023-05-14T17:12:39.317Z,16.80
2023-05-14T17:15:42.827Z,10.50
2023-05-14T17:18:46.208Z,12.68
2023-05-14T17:21:49.472Z,18.38
2023-05-14T17:24:52.536Z,16.52
2023-05-14T17:27:57.038Z,16.60
2023-05-14T17:31:00.062Z,11.83
2023-05-14T17:34:03.291Z,12.18
2023-05-14T17:37:06.785Z,11.88
2023-05-14T17:40:10.260Z,14.35
2023-05-14T17:43:13.774Z,12.40
2023-05-14T17:46:16.856Z,13.10
2023-05-14T17:49:20.029Z,14.00
2023-05-14T17:52:23.406Z,12.93
2023-05-14T17:55:27.297Z,15.95
2023-05-14T17:58:33.741Z,17.83
2023-05-14T18:01:36.938Z,16.53
2023-05-14T18:04:47.675Z,16.45
2023-05-14T18:07:56.181Z,17.52
2023-05-14T18:11:01.401Z,23.65
2023-05-14T18:14:07.960Z,19.27
2023-05-14T18:17:11.802Z,21.90
2023-05-14T18:20:15.136Z,22.98
2023-05-14T18:23:18.830Z,23.88
2023-05-14T18:26:23.446Z,16.70
2023-05-14T18:29:30.513Z,14.43
2023-05-14T18:32:35.792Z,17.03
2023-05-14T18:35:39.326Z,27.55
2023-05-14T18:38:43.109Z,23.90
2023-05-14T18:41:46.708Z,27.63
2023-05-14T18:44:50.179Z,27.17
2023-05-14T18:47:53.619Z,26.20
2023-05-14T18:50:56.927Z,28.13
2023-05-14T18:54:00.510Z,28.67
2023-05-14T18:57:04.432Z,29.50
2023-05-14T19:00:08.525Z,28.50
2023-05-14T19:03:14.817Z,18.63
2023-05-14T19:06:18.357Z,18.27
2023-05-14T19:09:22.144Z,20.48
2023-05-14T19:12:26.950Z,15.73
2023-05-14T19:15:31.164Z,20.67
2023-05-14T19:18:36.183Z,13.00
2023-05-14T19:21:43.146Z,13.70
2023-05-14T19:24:46.623Z,11.73
2023-05-14T19:27:51.656Z,11.82
2023-05-14T19:30:57.353Z,11.47
2023-05-14T19:34:00.574Z,10.73
2023-05-14T19:37:04.271Z,9.40
2023-05-14T19:40:08.664Z,10.38
2023-05-14T19:43:12.262Z,10.27
2023-05-14T19:46:15.925Z,8.53
2023-05-14T19:49:18.980Z,11.27
2023-05-14T19:52:22.103Z,11.50
2023-05-14T19:55:25.913Z,14.68
2023-05-14T19:58:29.042Z,16.52
2023-05-14T20:01:32.789Z,11.10
2023-05-14T20:04:35.948Z,11.70
2023-05-14T20:07:40.353Z,13.05
2023-05-14T20:10:49.000Z,17.88
2023-05-14T20:13:52.381Z,12.98
2023-05-14T20:16:58.450Z,13.87
2023-05-14T20:20:01.808Z,12.80
2023-05-14T20:23:04.999Z,10.63
2023-05-14T20:26:08.183Z,10.88
2023-05-14T20:29:13.826Z,14.52
2023-05-14T20:32:17.068Z,12.20
2023-05-14T20:35:20.490Z,8.57
2023-05-14T20:38:23.616Z,11.43
2023-05-14T20:41:27.054Z,8.77
2023-05-14T20:44:30.688Z,7.45
2023-05-14T20:47:34.450Z,10.00
2023-05-14T20:50:37.766Z,6.32
2023-05-14T20:53:41.408Z,7.00
2023-05-14T20:56:44.838Z,4.53
2023-05-14T20:59:49.103Z,6.37
2023-05-14T21:02:52.816Z,5.73
2023-05-14T21:06:00.707Z,4.30
2023-05-14T21:09:04.406Z,5.88
2023-05-14T21:12:08.609Z,9.57
2023-05-14T21:15:12.506Z,5.77
2023-05-14T21:18:16.283Z,6.53
2023-05-14T21:21:19.967Z,5.40
2023-05-14T21:24:23.760Z,9.00
2023-05-14T21:27:31.246Z,6.25
2023-05-14T21:30:35.031Z,5.30
2023-05-14T21:33:38.924Z,4.97
2023-05-14T21:36:51.060Z,6.57
2023-05-14T21:39:58.782Z,7.22
2023-05-14T21:43:03.190Z,6.18
2023-05-14T21:46:10.924Z,6.70
2023-05-14T21:49:14.818Z,7.63
2023-05-14T21:52:19.637Z,7.05
2023-05-14T21:55:25.023Z,7.72
2023-05-14T21:58:31.820Z,7.38
2023-05-14T22:02:04.963Z,8.03
2023-05-14T22:05:12.791Z,5.72
2023-05-14T22:08:21.671Z,6.90
2023-05-14T22:11:32.272Z,8.63
2023-05-14T22:14:42.972Z,6.67
2023-05-14T22:17:54.073Z,6.40
2023-05-14T22:21:05.486Z,7.40
2023-05-14T22:24:16.543Z,11.02
2023-05-14T22:27:20.742Z,6.80
2023-05-14T22:30:25.251Z,6.93
2023-05-14T22:33:33.608Z,7.47
2023-05-14T22:36:37.540Z,7.85
2023-05-14T22:39:40.921Z,7.50
2023-05-14T22:42:44.960Z,6.45
2023-05-14T22:45:48.504Z,6.37
2023-05-14T22:48:52.249Z,7.50
2023-05-14T22:51:56.089Z,8.55
2023-05-14T22:54:59.827Z,5.28
2023-05-14T22:58:05.359Z,8.35
2023-05-14T23:01:09.974Z,8.23
2023-05-14T23:04:21.510Z,5.90
2023-05-14T23:07:31.694Z,11.07
2023-05-14T23:10:38.744Z,7.57
2023-05-14T23:13:45.799Z,6.55
2023-05-14T23:17:05.672Z,6.87
2023-05-14T23:20:14.002Z,6.22
2023-05-14T23:23:30.960Z,6.47
2023-05-14T23:26:35.857Z,7.93
2023-05-14T23:29:54.796Z,7.57
2023-05-14T23:33:10.209Z,5.95
2023-05-14T23:36:18.150Z,7.25
2023-05-14T23:39:23.365Z,5.80
2023-05-14T23:42:34.002Z,10.43
2023-05-14T23:45:42.974Z,8.03
2023-05-14T23:48:52.754Z,6.45
2023-05-14T23:51:57.351Z,7.50
2023-05-14T23:55:57.090Z,7.63
2023-05-14T23:59:36.361Z,8.90
